sensor_id;sensor_type;location;lat;lon;timestamp;P1;durP1;ratioP1;P2;durP2;ratioP2
68188;SDS011;66299;47.514;19.218;2023-03-03T00:01:47;121.15;;;67.47;;
68188;SDS011;66299;47.514;19.218;2023-03-03T00:04:17;130.23;;;68.32;;
68188;SDS011;66299;47.514;19.218;2023-03-03T00:06:47;130.00;;;69.90;;
68188;SDS011;66299;47.514;19.218;2023-03-03T00:09:17;135.00;;;69.10;;
68188;SDS011;66299;47.514;19.218;2023-03-03T00:11:50;122.47;;;66.45;;
68188;SDS011;66299;47.514;19.218;2023-03-03T00:14:23;126.65;;;66.43;;
68188;SDS011;66299;47.514;19.218;2023-03-03T00:16:58;121.43;;;65.82;;
68188;SDS011;66299;47.514;19.218;2023-03-03T00:19:39;123.68;;;64.88;;
68188;SDS011;66299;47.514;19.218;2023-03-03T00:22:20;125.25;;;64.45;;
68188;SDS011;66299;47.514;19.218;2023-03-03T00:25:00;119.43;;;65.32;;
68188;SDS011;66299;47.514;19.218;2023-03-03T00:27:54;120.13;;;63.40;;
68188;SDS011;66299;47.514;19.218;2023-03-03T00:30:27;118.35;;;62.67;;
68188;SDS011;66299;47.514;19.218;2023-03-03T00:32:56;125.43;;;63.97;;
68188;SDS011;66299;47.514;19.218;2023-03-03T00:35:26;119.30;;;64.88;;
68188;SDS011;66299;47.514;19.218;2023-03-03T00:38:09;116.93;;;62.70;;
68188;SDS011;66299;47.514;19.218;2023-03-03T00:40:43;113.75;;;61.35;;
68188;SDS011;66299;47.514;19.218;2023-03-03T00:45:47;116.22;;;63.08;;
68188;SDS011;66299;47.514;19.218;2023-03-03T00:48:25;113.60;;;61.75;;
68188;SDS011;66299;47.514;19.218;2023-03-03T00:50:57;109.80;;;59.72;;
68188;SDS011;66299;47.514;19.218;2023-03-03T00:53:30;118.78;;;63.10;;
68188;SDS011;66299;47.514;19.218;2023-03-03T00:55:59;118.78;;;64.80;;
68188;SDS011;66299;47.514;19.218;2023-03-03T00:58:31;111.63;;;60.55;;
68188;SDS011;66299;47.514;19.218;2023-03-03T01:01:02;111.00;;;60.53;;
68188;SDS011;66299;47.514;19.218;2023-03-03T01:03:36;107.32;;;59.70;;
68188;SDS011;66299;47.514;19.218;2023-03-03T01:06:07;114.53;;;61.17;;
68188;SDS011;66299;47.514;19.218;2023-03-03T01:08:39;114.63;;;61.53;;
68188;SDS011;66299;47.514;19.218;2023-03-03T01:11:11;114.10;;;60.83;;
68188;SDS011;66299;47.514;19.218;2023-03-03T01:13:43;112.93;;;60.65;;
68188;SDS011;66299;47.514;19.218;2023-03-03T01:18:47;110.93;;;60.33;;
68188;SDS011;66299;47.514;19.218;2023-03-03T01:21:19;109.07;;;62.08;;
68188;SDS011;66299;47.514;19.218;2023-03-03T01:23:58;116.47;;;63.97;;
68188;SDS011;66299;47.514;19.218;2023-03-03T01:26:29;123.55;;;67.32;;
68188;SDS011;66299;47.514;19.218;2023-03-03T01:29:03;121.95;;;65.80;;
68188;SDS011;66299;47.514;19.218;2023-03-03T01:31:33;130.73;;;69.70;;
68188;SDS011;66299;47.514;19.218;2023-03-03T01:34:03;127.38;;;67.88;;
68188;SDS011;66299;47.514;19.218;2023-03-03T01:36:33;125.97;;;66.82;;
68188;SDS011;66299;47.514;19.218;2023-03-03T01:39:08;117.75;;;62.88;;
68188;SDS011;66299;47.514;19.218;2023-03-03T01:41:38;120.30;;;64.15;;
68188;SDS011;66299;47.514;19.218;2023-03-03T01:44:08;118.18;;;63.25;;
68188;SDS011;66299;47.514;19.218;2023-03-03T01:46:46;119.72;;;65.07;;
68188;SDS011;66299;47.514;19.218;2023-03-03T01:49:19;124.93;;;64.15;;
68188;SDS011;66299;47.514;19.218;2023-03-03T01:51:53;122.05;;;63.55;;
68188;SDS011;66299;47.514;19.218;2023-03-03T01:54:28;116.60;;;63.17;;
68188;SDS011;66299;47.514;19.218;2023-03-03T01:57:01;119.20;;;62.22;;
68188;SDS011;66299;47.514;19.218;2023-03-03T01:59:33;116.13;;;62.15;;
68188;SDS011;66299;47.514;19.218;2023-03-03T02:02:08;110.40;;;59.75;;
68188;SDS011;66299;47.514;19.218;2023-03-03T02:04:42;113.40;;;60.35;;
68188;SDS011;66299;47.514;19.218;2023-03-03T02:07:11;110.25;;;57.83;;
68188;SDS011;66299;47.514;19.218;2023-03-03T02:09:48;106.78;;;56.92;;
68188;SDS011;66299;47.514;19.218;2023-03-03T02:12:22;102.03;;;55.90;;
68188;SDS011;66299;47.514;19.218;2023-03-03T02:14:59;105.78;;;55.35;;
68188;SDS011;66299;47.514;19.218;2023-03-03T02:17:28;98.78;;;53.97;;
68188;SDS011;66299;47.514;19.218;2023-03-03T02:20:00;105.43;;;55.08;;
68188;SDS011;66299;47.514;19.218;2023-03-03T02:22:35;103.63;;;56.80;;
68188;SDS011;66299;47.514;19.218;2023-03-03T02:25:12;104.45;;;54.97;;
68188;SDS011;66299;47.514;19.218;2023-03-03T02:27:50;110.53;;;55.38;;
68188;SDS011;66299;47.514;19.218;2023-03-03T02:30:20;100.82;;;52.10;;
68188;SDS011;66299;47.514;19.218;2023-03-03T02:32:50;96.40;;;52.67;;
68188;SDS011;66299;47.514;19.218;2023-03-03T02:35:32;97.18;;;52.20;;
68188;SDS011;66299;47.514;19.218;2023-03-03T02:38:13;95.47;;;53.35;;
68188;SDS011;66299;47.514;19.218;2023-03-03T02:40:48;105.47;;;54.40;;
68188;SDS011;66299;47.514;19.218;2023-03-03T02:43:28;100.82;;;52.25;;
68188;SDS011;66299;47.514;19.218;2023-03-03T02:46:04;98.78;;;51.92;;
68188;SDS011;66299;47.514;19.218;2023-03-03T02:48:35;99.80;;;52.67;;
68188;SDS011;66299;47.514;19.218;2023-03-03T02:51:05;103.87;;;53.10;;
68188;SDS011;66299;47.514;19.218;2023-03-03T02:53:35;92.57;;;50.78;;
68188;SDS011;66299;47.514;19.218;2023-03-03T02:56:07;91.97;;;49.65;;
68188;SDS011;66299;47.514;19.218;2023-03-03T02:58:38;95.85;;;52.25;;
68188;SDS011;66299;47.514;19.218;2023-03-03T03:01:09;93.93;;;50.47;;
68188;SDS011;66299;47.514;19.218;2023-03-03T03:03:43;90.30;;;48.90;;
68188;SDS011;66299;47.514;19.218;2023-03-03T03:06:13;93.53;;;49.40;;
68188;SDS011;66299;47.514;19.218;2023-03-03T03:08:48;95.25;;;49.45;;
68188;SDS011;66299;47.514;19.218;2023-03-03T03:11:17;90.97;;;47.78;;
68188;SDS011;66299;47.514;19.218;2023-03-03T03:13:48;86.10;;;46.80;;
68188;SDS011;66299;47.514;19.218;2023-03-03T03:16:20;85.57;;;47.13;;
68188;SDS011;66299;47.514;19.218;2023-03-03T03:18:54;88.85;;;46.90;;
68188;SDS011;66299;47.514;19.218;2023-03-03T03:21:27;88.75;;;46.53;;
68188;SDS011;66299;47.514;19.218;2023-03-03T03:23:59;88.28;;;47.03;;
68188;SDS011;66299;47.514;19.218;2023-03-03T03:29:01;89.80;;;46.95;;
68188;SDS011;66299;47.514;19.218;2023-03-03T03:31:30;95.07;;;48.85;;
68188;SDS011;66299;47.514;19.218;2023-03-03T03:34:01;93.80;;;49.17;;
68188;SDS011;66299;47.514;19.218;2023-03-03T03:36:30;95.32;;;48.33;;
68188;SDS011;66299;47.514;19.218;2023-03-03T03:39:01;91.32;;;48.70;;
68188;SDS011;66299;47.514;19.218;2023-03-03T03:41:34;93.00;;;49.00;;
68188;SDS011;66299;47.514;19.218;2023-03-03T03:44:04;100.00;;;50.03;;
68188;SDS011;66299;47.514;19.218;2023-03-03T03:46:34;99.13;;;48.20;;
68188;SDS011;66299;47.514;19.218;2023-03-03T03:49:04;92.43;;;49.25;;
68188;SDS011;66299;47.514;19.218;2023-03-03T03:51:32;91.82;;;48.80;;
68188;SDS011;66299;47.514;19.218;2023-03-03T03:54:09;93.25;;;48.40;;
68188;SDS011;66299;47.514;19.218;2023-03-03T03:56:41;93.05;;;48.28;;
68188;SDS011;66299;47.514;19.218;2023-03-03T03:59:11;93.32;;;48.22;;
68188;SDS011;66299;47.514;19.218;2023-03-03T04:01:40;85.50;;;47.38;;
68188;SDS011;66299;47.514;19.218;2023-03-03T04:04:09;88.28;;;48.13;;
68188;SDS011;66299;47.514;19.218;2023-03-03T04:06:38;88.03;;;48.25;;
68188;SDS011;66299;47.514;19.218;2023-03-03T04:09:12;86.75;;;47.67;;
68188;SDS011;66299;47.514;19.218;2023-03-03T04:11:47;102.60;;;52.15;;
68188;SDS011;66299;47.514;19.218;2023-03-03T04:14:18;101.63;;;52.03;;
68188;SDS011;66299;47.514;19.218;2023-03-03T04:16:49;102.35;;;52.97;;
68188;SDS011;66299;47.514;19.218;2023-03-03T04:19:21;107.40;;;54.42;;
68188;SDS011;66299;47.514;19.218;2023-03-03T04:21:55;97.90;;;52.60;;
68188;SDS011;66299;47.514;19.218;2023-03-03T04:24:26;96.13;;;52.58;;
68188;SDS011;66299;47.514;19.218;2023-03-03T04:26:58;96.20;;;51.35;;
68188;SDS011;66299;47.514;19.218;2023-03-03T04:29:29;96.35;;;51.90;;
68188;SDS011;66299;47.514;19.218;2023-03-03T04:31:58;96.38;;;50.85;;
68188;SDS011;66299;47.514;19.218;2023-03-03T04:34:31;96.45;;;51.63;;
68188;SDS011;66299;47.514;19.218;2023-03-03T04:37:02;103.93;;;54.88;;
68188;SDS011;66299;47.514;19.218;2023-03-03T04:39:35;96.78;;;51.03;;
68188;SDS011;66299;47.514;19.218;2023-03-03T04:42:04;105.43;;;52.72;;
68188;SDS011;66299;47.514;19.218;2023-03-03T04:44:38;107.68;;;52.45;;
68188;SDS011;66299;47.514;19.218;2023-03-03T04:47:12;101.22;;;52.85;;
68188;SDS011;66299;47.514;19.218;2023-03-03T04:49:41;88.28;;;48.08;;
68188;SDS011;66299;47.514;19.218;2023-03-03T04:52:09;85.32;;;48.20;;
68188;SDS011;66299;47.514;19.218;2023-03-03T04:54:39;89.57;;;48.40;;
68188;SDS011;66299;47.514;19.218;2023-03-03T04:57:11;92.20;;;48.83;;
68188;SDS011;66299;47.514;19.218;2023-03-03T04:59:43;99.47;;;51.60;;
68188;SDS011;66299;47.514;19.218;2023-03-03T05:02:12;101.70;;;51.60;;
68188;SDS011;66299;47.514;19.218;2023-03-03T05:04:50;95.78;;;50.03;;
68188;SDS011;66299;47.514;19.218;2023-03-03T05:07:19;105.22;;;51.97;;
68188;SDS011;66299;47.514;19.218;2023-03-03T05:09:50;107.40;;;58.97;;
68188;SDS011;66299;47.514;19.218;2023-03-03T05:12:20;101.88;;;54.67;;
68188;SDS011;66299;47.514;19.218;2023-03-03T05:14:52;102.72;;;52.20;;
68188;SDS011;66299;47.514;19.218;2023-03-03T05:17:32;94.78;;;50.47;;
68188;SDS011;66299;47.514;19.218;2023-03-03T05:20:01;94.60;;;50.60;;
68188;SDS011;66299;47.514;19.218;2023-03-03T05:22:34;90.68;;;49.50;;
68188;SDS011;66299;47.514;19.218;2023-03-03T05:25:03;85.53;;;47.20;;
68188;SDS011;66299;47.514;19.218;2023-03-03T05:27:39;93.75;;;50.13;;
68188;SDS011;66299;47.514;19.218;2023-03-03T05:30:16;92.53;;;48.55;;
68188;SDS011;66299;47.514;19.218;2023-03-03T05:33:01;94.60;;;50.70;;
68188;SDS011;66299;47.514;19.218;2023-03-03T05:35:32;99.90;;;50.70;;
68188;SDS011;66299;47.514;19.218;2023-03-03T05:38:01;92.28;;;49.33;;
68188;SDS011;66299;47.514;19.218;2023-03-03T05:40:31;97.25;;;49.95;;
68188;SDS011;66299;47.514;19.218;2023-03-03T05:43:00;96.07;;;49.00;;
68188;SDS011;66299;47.514;19.218;2023-03-03T05:45:33;92.82;;;47.38;;
68188;SDS011;66299;47.514;19.218;2023-03-03T05:48:06;90.30;;;46.88;;
68188;SDS011;66299;47.514;19.218;2023-03-03T05:50:37;86.85;;;47.05;;
68188;SDS011;66299;47.514;19.218;2023-03-03T05:53:12;95.38;;;47.75;;
68188;SDS011;66299;47.514;19.218;2023-03-03T05:55:43;94.40;;;49.00;;
68188;SDS011;66299;47.514;19.218;2023-03-03T05:58:12;99.93;;;49.50;;
68188;SDS011;66299;47.514;19.218;2023-03-03T06:00:46;95.28;;;49.47;;
68188;SDS011;66299;47.514;19.218;2023-03-03T06:03:18;92.93;;;49.03;;
68188;SDS011;66299;47.514;19.218;2023-03-03T06:05:47;99.70;;;50.67;;
68188;SDS011;66299;47.514;19.218;2023-03-03T06:08:19;98.15;;;53.35;;
68188;SDS011;66299;47.514;19.218;2023-03-03T06:10:51;116.00;;;61.78;;
68188;SDS011;66299;47.514;19.218;2023-03-03T06:13:21;139.18;;;75.35;;
68188;SDS011;66299;47.514;19.218;2023-03-03T06:15:54;118.82;;;63.83;;
68188;SDS011;66299;47.514;19.218;2023-03-03T06:18:22;129.33;;;69.27;;
68188;SDS011;66299;47.514;19.218;2023-03-03T06:20:53;126.15;;;69.97;;
68188;SDS011;66299;47.514;19.218;2023-03-03T06:23:24;114.90;;;63.03;;
68188;SDS011;66299;47.514;19.218;2023-03-03T06:25:54;103.78;;;55.45;;
68188;SDS011;66299;47.514;19.218;2023-03-03T06:28:24;104.57;;;52.63;;
68188;SDS011;66299;47.514;19.218;2023-03-03T06:30:57;95.03;;;49.35;;
68188;SDS011;66299;47.514;19.218;2023-03-03T06:33:29;94.82;;;48.30;;
68188;SDS011;66299;47.514;19.218;2023-03-03T06:35:58;90.03;;;46.25;;
68188;SDS011;66299;47.514;19.218;2023-03-03T06:38:26;85.15;;;45.00;;
68188;SDS011;66299;47.514;19.218;2023-03-03T06:40:54;89.97;;;47.13;;
68188;SDS011;66299;47.514;19.218;2023-03-03T06:43:24;88.22;;;45.03;;
68188;SDS011;66299;47.514;19.218;2023-03-03T06:45:55;98.55;;;49.88;;
68188;SDS011;66299;47.514;19.218;2023-03-03T06:48:28;98.28;;;51.35;;
68188;SDS011;66299;47.514;19.218;2023-03-03T06:51:00;108.75;;;51.70;;
68188;SDS011;66299;47.514;19.218;2023-03-03T06:53:36;110.72;;;48.83;;
68188;SDS011;66299;47.514;19.218;2023-03-03T06:56:08;92.47;;;48.05;;
68188;SDS011;66299;47.514;19.218;2023-03-03T06:58:39;95.07;;;46.95;;
68188;SDS011;66299;47.514;19.218;2023-03-03T07:01:12;95.70;;;46.13;;
68188;SDS011;66299;47.514;19.218;2023-03-03T07:03:44;88.32;;;44.85;;
68188;SDS011;66299;47.514;19.218;2023-03-03T07:06:16;90.00;;;43.72;;
68188;SDS011;66299;47.514;19.218;2023-03-03T07:08:50;78.82;;;42.15;;
68188;SDS011;66299;47.514;19.218;2023-03-03T07:11:21;78.93;;;41.40;;
68188;SDS011;66299;47.514;19.218;2023-03-03T07:13:55;78.15;;;40.53;;
68188;SDS011;66299;47.514;19.218;2023-03-03T07:16:26;75.63;;;39.92;;
68188;SDS011;66299;47.514;19.218;2023-03-03T07:19:00;84.25;;;40.28;;
68188;SDS011;66299;47.514;19.218;2023-03-03T07:21:32;81.40;;;40.97;;
68188;SDS011;66299;47.514;19.218;2023-03-03T07:24:07;72.50;;;38.42;;
68188;SDS011;66299;47.514;19.218;2023-03-03T07:26:47;72.90;;;38.25;;
68188;SDS011;66299;47.514;19.218;2023-03-03T07:29:20;85.63;;;37.78;;
68188;SDS011;66299;47.514;19.218;2023-03-03T07:31:53;74.65;;;38.30;;
68188;SDS011;66299;47.514;19.218;2023-03-03T07:34:30;77.55;;;40.03;;
68188;SDS011;66299;47.514;19.218;2023-03-03T07:37:09;69.93;;;37.63;;
68188;SDS011;66299;47.514;19.218;2023-03-03T07:39:43;80.00;;;40.80;;
68188;SDS011;66299;47.514;19.218;2023-03-03T07:42:16;71.53;;;36.65;;
68188;SDS011;66299;47.514;19.218;2023-03-03T07:44:49;71.93;;;36.20;;
68188;SDS011;66299;47.514;19.218;2023-03-03T07:47:21;85.72;;;40.05;;
68188;SDS011;66299;47.514;19.218;2023-03-03T07:49:54;76.10;;;39.72;;
68188;SDS011;66299;47.514;19.218;2023-03-03T07:52:27;81.68;;;42.08;;
68188;SDS011;66299;47.514;19.218;2023-03-03T07:57:28;81.97;;;40.70;;
68188;SDS011;66299;47.514;19.218;2023-03-03T08:00:39;85.80;;;42.05;;
68188;SDS011;66299;47.514;19.218;2023-03-03T08:03:22;91.78;;;43.42;;
68188;SDS011;66299;47.514;19.218;2023-03-03T08:05:58;89.63;;;44.55;;
68188;SDS011;66299;47.514;19.218;2023-03-03T08:08:36;101.85;;;49.70;;
68188;SDS011;66299;47.514;19.218;2023-03-03T08:11:08;88.05;;;46.35;;
68188;SDS011;66299;47.514;19.218;2023-03-03T08:13:37;90.88;;;43.58;;
68188;SDS011;66299;47.514;19.218;2023-03-03T08:16:20;81.15;;;41.95;;
68188;SDS011;66299;47.514;19.218;2023-03-03T08:18:54;81.13;;;43.72;;
68188;SDS011;66299;47.514;19.218;2023-03-03T08:21:27;82.00;;;44.42;;
68188;SDS011;66299;47.514;19.218;2023-03-03T08:23:57;78.28;;;43.00;;
68188;SDS011;66299;47.514;19.218;2023-03-03T08:26:26;73.80;;;42.28;;
68188;SDS011;66299;47.514;19.218;2023-03-03T08:28:54;81.93;;;42.75;;
68188;SDS011;66299;47.514;19.218;2023-03-03T08:31:25;75.78;;;43.60;;
68188;SDS011;66299;47.514;19.218;2023-03-03T08:34:10;80.25;;;44.35;;
68188;SDS011;66299;47.514;19.218;2023-03-03T08:40:43;76.38;;;41.83;;
68188;SDS011;66299;47.514;19.218;2023-03-03T08:46:18;71.15;;;40.50;;
68188;SDS011;66299;47.514;19.218;2023-03-03T08:52:00;75.10;;;41.10;;
68188;SDS011;66299;47.514;19.218;2023-03-03T08:57:28;76.28;;;41.80;;
68188;SDS011;66299;47.514;19.218;2023-03-03T08:59:57;77.45;;;42.53;;
68188;SDS011;66299;47.514;19.218;2023-03-03T09:02:26;75.20;;;41.55;;
68188;SDS011;66299;47.514;19.218;2023-03-03T09:04:58;73.43;;;40.63;;
68188;SDS011;66299;47.514;19.218;2023-03-03T09:07:30;77.78;;;41.83;;
68188;SDS011;66299;47.514;19.218;2023-03-03T09:09:58;72.63;;;38.35;;
68188;SDS011;66299;47.514;19.218;2023-03-03T09:12:29;70.35;;;38.03;;
68188;SDS011;66299;47.514;19.218;2023-03-03T09:15:09;78.90;;;39.13;;
68188;SDS011;66299;47.514;19.218;2023-03-03T09:17:42;74.87;;;40.27;;
68188;SDS011;66299;47.514;19.218;2023-03-03T09:20:24;73.95;;;40.60;;
68188;SDS011;66299;47.514;19.218;2023-03-03T09:22:58;64.28;;;36.65;;
68188;SDS011;66299;47.514;19.218;2023-03-03T09:25:36;68.22;;;35.58;;
68188;SDS011;66299;47.514;19.218;2023-03-03T09:28:09;73.80;;;36.38;;
68188;SDS011;66299;47.514;19.218;2023-03-03T09:30:53;63.97;;;35.22;;
68188;SDS011;66299;47.514;19.218;2023-03-03T09:33:24;62.70;;;32.90;;
68188;SDS011;66299;47.514;19.218;2023-03-03T09:36:00;52.45;;;27.27;;
68188;SDS011;66299;47.514;19.218;2023-03-03T09:38:38;48.17;;;25.42;;
68188;SDS011;66299;47.514;19.218;2023-03-03T09:41:15;41.53;;;23.90;;
68188;SDS011;66299;47.514;19.218;2023-03-03T09:44:29;44.70;;;21.77;;
68188;SDS011;66299;47.514;19.218;2023-03-03T09:47:30;39.58;;;22.38;;
68188;SDS011;66299;47.514;19.218;2023-03-03T09:50:09;41.88;;;22.27;;
68188;SDS011;66299;47.514;19.218;2023-03-03T09:52:51;37.08;;;21.52;;
68188;SDS011;66299;47.514;19.218;2023-03-03T09:55:33;45.73;;;22.13;;
68188;SDS011;66299;47.514;19.218;2023-03-03T09:58:14;37.70;;;20.10;;
68188;SDS011;66299;47.514;19.218;2023-03-03T10:00:58;36.03;;;17.00;;
68188;SDS011;66299;47.514;19.218;2023-03-03T10:03:54;36.55;;;17.67;;
68188;SDS011;66299;47.514;19.218;2023-03-03T10:06:36;35.35;;;18.15;;
68188;SDS011;66299;47.514;19.218;2023-03-03T10:09:27;38.33;;;18.50;;
68188;SDS011;66299;47.514;19.218;2023-03-03T10:12:16;33.05;;;16.05;;
68188;SDS011;66299;47.514;19.218;2023-03-03T10:17:44;26.70;;;12.95;;
68188;SDS011;66299;47.514;19.218;2023-03-03T10:23:18;28.73;;;12.98;;
68188;SDS011;66299;47.514;19.218;2023-03-03T10:25:58;23.75;;;12.02;;
68188;SDS011;66299;47.514;19.218;2023-03-03T10:31:36;26.95;;;13.75;;
68188;SDS011;66299;47.514;19.218;2023-03-03T10:34:22;28.40;;;13.77;;
68188;SDS011;66299;47.514;19.218;2023-03-03T10:37:15;29.27;;;13.73;;
68188;SDS011;66299;47.514;19.218;2023-03-03T10:39:54;27.65;;;13.55;;
68188;SDS011;66299;47.514;19.218;2023-03-03T10:42:41;26.92;;;13.50;;
68188;SDS011;66299;47.514;19.218;2023-03-03T10:45:30;30.25;;;11.88;;
68188;SDS011;66299;47.514;19.218;2023-03-03T10:48:22;23.60;;;11.90;;
68188;SDS011;66299;47.514;19.218;2023-03-03T10:51:08;26.02;;;11.57;;
68188;SDS011;66299;47.514;19.218;2023-03-03T10:53:51;26.48;;;12.32;;
68188;SDS011;66299;47.514;19.218;2023-03-03T10:56:32;30.20;;;13.13;;
68188;SDS011;66299;47.514;19.218;2023-03-03T10:59:26;28.30;;;13.23;;
68188;SDS011;66299;47.514;19.218;2023-03-03T11:02:06;26.23;;;13.10;;
68188;SDS011;66299;47.514;19.218;2023-03-03T11:04:52;27.27;;;12.95;;
68188;SDS011;66299;47.514;19.218;2023-03-03T11:07:38;32.13;;;12.80;;
68188;SDS011;66299;47.514;19.218;2023-03-03T11:10:14;28.67;;;13.23;;
68188;SDS011;66299;47.514;19.218;2023-03-03T11:12:50;28.48;;;14.40;;
68188;SDS011;66299;47.514;19.218;2023-03-03T11:15:32;30.02;;;13.55;;
68188;SDS011;66299;47.514;19.218;2023-03-03T11:18:14;28.00;;;14.70;;
68188;SDS011;66299;47.514;19.218;2023-03-03T11:20:54;34.15;;;14.20;;
68188;SDS011;66299;47.514;19.218;2023-03-03T11:26:29;31.45;;;14.52;;
68188;SDS011;66299;47.514;19.218;2023-03-03T11:29:12;26.25;;;14.10;;
68188;SDS011;66299;47.514;19.218;2023-03-03T11:32:15;33.15;;;14.35;;
68188;SDS011;66299;47.514;19.218;2023-03-03T11:34:53;26.83;;;13.43;;
68188;SDS011;66299;47.514;19.218;2023-03-03T11:37:28;29.55;;;12.73;;
68188;SDS011;66299;47.514;19.218;2023-03-03T11:40:08;24.38;;;13.32;;
68188;SDS011;66299;47.514;19.218;2023-03-03T11:42:45;24.40;;;12.88;;
68188;SDS011;66299;47.514;19.218;2023-03-03T11:45:24;30.27;;;13.32;;
68188;SDS011;66299;47.514;19.218;2023-03-03T11:48:00;28.95;;;12.82;;
68188;SDS011;66299;47.514;19.218;2023-03-03T11:50:35;28.55;;;12.93;;
68188;SDS011;66299;47.514;19.218;2023-03-03T11:53:15;24.75;;;11.95;;
68188;SDS011;66299;47.514;19.218;2023-03-03T11:55:55;29.95;;;12.95;;
68188;SDS011;66299;47.514;19.218;2023-03-03T11:58:30;28.77;;;13.25;;
68188;SDS011;66299;47.514;19.218;2023-03-03T12:01:06;29.98;;;13.05;;
68188;SDS011;66299;47.514;19.218;2023-03-03T12:03:47;26.67;;;12.93;;
68188;SDS011;66299;47.514;19.218;2023-03-03T12:06:32;25.17;;;12.77;;
68188;SDS011;66299;47.514;19.218;2023-03-03T12:09:18;25.63;;;13.93;;
68188;SDS011;66299;47.514;19.218;2023-03-03T12:12:01;27.58;;;13.70;;
68188;SDS011;66299;47.514;19.218;2023-03-03T12:14:40;26.38;;;13.43;;
68188;SDS011;66299;47.514;19.218;2023-03-03T12:17:26;27.25;;;14.00;;
68188;SDS011;66299;47.514;19.218;2023-03-03T12:20:14;28.98;;;13.57;;
68188;SDS011;66299;47.514;19.218;2023-03-03T12:22:51;25.83;;;13.55;;
68188;SDS011;66299;47.514;19.218;2023-03-03T12:25:35;25.05;;;13.90;;
68188;SDS011;66299;47.514;19.218;2023-03-03T12:28:09;27.08;;;13.40;;
68188;SDS011;66299;47.514;19.218;2023-03-03T12:33:18;25.98;;;12.98;;
68188;SDS011;66299;47.514;19.218;2023-03-03T12:36:00;25.48;;;13.20;;
68188;SDS011;66299;47.514;19.218;2023-03-03T12:38:37;27.83;;;13.13;;
68188;SDS011;66299;47.514;19.218;2023-03-03T12:41:13;30.35;;;13.27;;
68188;SDS011;66299;47.514;19.218;2023-03-03T12:43:54;27.63;;;13.55;;
68188;SDS011;66299;47.514;19.218;2023-03-03T12:46:28;27.40;;;14.02;;
68188;SDS011;66299;47.514;19.218;2023-03-03T12:51:39;25.70;;;13.80;;
68188;SDS011;66299;47.514;19.218;2023-03-03T12:54:24;29.95;;;14.32;;
68188;SDS011;66299;47.514;19.218;2023-03-03T12:57:04;25.85;;;13.93;;
68188;SDS011;66299;47.514;19.218;2023-03-03T12:59:47;26.80;;;14.23;;
68188;SDS011;66299;47.514;19.218;2023-03-03T13:02:40;26.77;;;14.07;;
68188;SDS011;66299;47.514;19.218;2023-03-03T13:05:21;25.27;;;13.65;;
68188;SDS011;66299;47.514;19.218;2023-03-03T13:08:09;30.38;;;14.65;;
68188;SDS011;66299;47.514;19.218;2023-03-03T13:10:48;31.95;;;14.40;;
68188;SDS011;66299;47.514;19.218;2023-03-03T13:13:23;33.17;;;14.15;;
68188;SDS011;66299;47.514;19.218;2023-03-03T13:16:01;32.15;;;14.65;;
68188;SDS011;66299;47.514;19.218;2023-03-03T13:18:49;30.15;;;14.80;;
68188;SDS011;66299;47.514;19.218;2023-03-03T13:21:23;28.13;;;14.07;;
68188;SDS011;66299;47.514;19.218;2023-03-03T13:24:00;26.35;;;13.98;;
68188;SDS011;66299;47.514;19.218;2023-03-03T13:26:35;31.50;;;14.65;;
68188;SDS011;66299;47.514;19.218;2023-03-03T13:29:08;27.42;;;14.55;;
68188;SDS011;66299;47.514;19.218;2023-03-03T13:31:44;28.23;;;15.52;;
68188;SDS011;66299;47.514;19.218;2023-03-03T13:34:20;27.23;;;14.65;;
68188;SDS011;66299;47.514;19.218;2023-03-03T13:36:55;27.02;;;13.50;;
68188;SDS011;66299;47.514;19.218;2023-03-03T13:39:31;29.77;;;13.02;;
68188;SDS011;66299;47.514;19.218;2023-03-03T13:42:08;26.17;;;12.40;;
68188;SDS011;66299;47.514;19.218;2023-03-03T13:44:45;28.08;;;12.80;;
68188;SDS011;66299;47.514;19.218;2023-03-03T13:47:17;25.50;;;13.13;;
68188;SDS011;66299;47.514;19.218;2023-03-03T13:49:55;24.30;;;13.07;;
68188;SDS011;66299;47.514;19.218;2023-03-03T13:52:30;25.52;;;12.30;;
68188;SDS011;66299;47.514;19.218;2023-03-03T13:55:18;24.60;;;12.65;;
68188;SDS011;66299;47.514;19.218;2023-03-03T13:57:56;27.83;;;13.73;;
68188;SDS011;66299;47.514;19.218;2023-03-03T14:00:33;24.98;;;12.60;;
68188;SDS011;66299;47.514;19.218;2023-03-03T14:03:13;25.33;;;12.40;;
68188;SDS011;66299;47.514;19.218;2023-03-03T14:05:54;25.10;;;12.82;;
68188;SDS011;66299;47.514;19.218;2023-03-03T14:08:38;22.10;;;12.95;;
68188;SDS011;66299;47.514;19.218;2023-03-03T14:11:28;22.80;;;11.63;;
68188;SDS011;66299;47.514;19.218;2023-03-03T14:14:03;26.60;;;12.50;;
68188;SDS011;66299;47.514;19.218;2023-03-03T14:16:46;27.30;;;12.95;;
68188;SDS011;66299;47.514;19.218;2023-03-03T14:19:20;26.42;;;13.60;;
68188;SDS011;66299;47.514;19.218;2023-03-03T14:21:56;25.80;;;13.65;;
68188;SDS011;66299;47.514;19.218;2023-03-03T14:24:43;25.10;;;12.63;;
68188;SDS011;66299;47.514;19.218;2023-03-03T14:27:35;25.88;;;13.35;;
68188;SDS011;66299;47.514;19.218;2023-03-03T14:30:26;24.75;;;13.35;;
68188;SDS011;66299;47.514;19.218;2023-03-03T14:32:58;24.50;;;13.30;;
68188;SDS011;66299;47.514;19.218;2023-03-03T14:35:29;24.30;;;13.70;;
68188;SDS011;66299;47.514;19.218;2023-03-03T14:38:02;27.25;;;14.00;;
68188;SDS011;66299;47.514;19.218;2023-03-03T14:40:40;24.65;;;13.73;;
68188;SDS011;66299;47.514;19.218;2023-03-03T14:43:23;25.15;;;14.35;;
68188;SDS011;66299;47.514;19.218;2023-03-03T14:45:53;25.13;;;13.45;;
68188;SDS011;66299;47.514;19.218;2023-03-03T14:48:25;26.92;;;13.85;;
68188;SDS011;66299;47.514;19.218;2023-03-03T14:50:58;27.25;;;14.13;;
68188;SDS011;66299;47.514;19.218;2023-03-03T14:53:42;27.83;;;13.15;;
68188;SDS011;66299;47.514;19.218;2023-03-03T14:56:20;27.63;;;13.85;;
68188;SDS011;66299;47.514;19.218;2023-03-03T14:59:10;25.35;;;13.25;;
68188;SDS011;66299;47.514;19.218;2023-03-03T15:01:46;25.75;;;13.43;;
68188;SDS011;66299;47.514;19.218;2023-03-03T15:04:24;27.05;;;14.02;;
68188;SDS011;66299;47.514;19.218;2023-03-03T15:06:54;27.23;;;14.07;;
68188;SDS011;66299;47.514;19.218;2023-03-03T15:09:33;27.05;;;13.30;;
68188;SDS011;66299;47.514;19.218;2023-03-03T15:12:19;25.45;;;13.52;;
68188;SDS011;66299;47.514;19.218;2023-03-03T15:14:52;26.48;;;13.65;;
68188;SDS011;66299;47.514;19.218;2023-03-03T15:17:37;28.80;;;15.10;;
68188;SDS011;66299;47.514;19.218;2023-03-03T15:22:48;28.52;;;13.18;;
68188;SDS011;66299;47.514;19.218;2023-03-03T15:25:23;26.88;;;13.35;;
68188;SDS011;66299;47.514;19.218;2023-03-03T15:31:05;26.08;;;13.77;;
68188;SDS011;66299;47.514;19.218;2023-03-03T15:33:44;24.80;;;13.10;;
68188;SDS011;66299;47.514;19.218;2023-03-03T15:36:21;24.00;;;13.38;;
68188;SDS011;66299;47.514;19.218;2023-03-03T15:39:00;29.55;;;14.65;;
68188;SDS011;66299;47.514;19.218;2023-03-03T15:41:37;27.17;;;13.65;;